sensor_id;sensor_type;location;lat;lon;timestamp;temperature;humidity
66506;HTU21D;53332;51.082;5.832;2023-04-28T00:00:56;12.50;80.81
66506;HTU21D;53332;51.082;5.832;2023-04-28T00:03:21;12.51;81.60
66506;HTU21D;53332;51.082;5.832;2023-04-28T00:05:47;12.48;81.02
66506;HTU21D;53332;51.082;5.832;2023-04-28T00:08:14;12.42;80.65
66506;HTU21D;53332;51.082;5.832;2023-04-28T00:10:39;12.42;80.78
66506;HTU21D;53332;51.082;5.832;2023-04-28T00:13:05;12.44;80.41
66506;HTU21D;53332;51.082;5.832;2023-04-28T00:15:30;12.46;80.46
66506;HTU21D;53332;51.082;5.832;2023-04-28T00:17:56;12.46;80.88
66506;HTU21D;53332;51.082;5.832;2023-04-28T00:20:21;12.45;80.84
66506;HTU21D;53332;51.082;5.832;2023-04-28T00:22:47;12.38;81.48
66506;HTU21D;53332;51.082;5.832;2023-04-28T00:25:13;12.34;82.36
66506;HTU21D;53332;51.082;5.832;2023-04-28T00:27:39;12.31;83.04
66506;HTU21D;53332;51.082;5.832;2023-04-28T00:30:05;12.23;83.90
66506;HTU21D;53332;51.082;5.832;2023-04-28T00:32:31;12.19;84.48
66506;HTU21D;53332;51.082;5.832;2023-04-28T00:34:56;12.21;85.05
66506;HTU21D;53332;51.082;5.832;2023-04-28T00:37:22;12.25;85.31
66506;HTU21D;53332;51.082;5.832;2023-04-28T00:39:47;12.20;85.26
66506;HTU21D;53332;51.082;5.832;2023-04-28T00:42:16;12.15;86.08
66506;HTU21D;53332;51.082;5.832;2023-04-28T00:44:41;12.12;87.15
66506;HTU21D;53332;51.082;5.832;2023-04-28T00:47:10;12.05;87.86
66506;HTU21D;53332;51.082;5.832;2023-04-28T00:49:36;12.01;88.37
66506;HTU21D;53332;51.082;5.832;2023-04-28T00:52:04;12.01;89.11
66506;HTU21D;53332;51.082;5.832;2023-04-28T00:54:34;12.00;89.39
66506;HTU21D;53332;51.082;5.832;2023-04-28T00:57:01;12.03;89.12
66506;HTU21D;53332;51.082;5.832;2023-04-28T00:59:30;12.02;88.03
66506;HTU21D;53332;51.082;5.832;2023-04-28T01:01:56;12.02;88.13
66506;HTU21D;53332;51.082;5.832;2023-04-28T01:04:22;12.06;88.23
66506;HTU21D;53332;51.082;5.832;2023-04-28T01:06:52;12.10;88.22
66506;HTU21D;53332;51.082;5.832;2023-04-28T01:09:20;12.04;88.92
66506;HTU21D;53332;51.082;5.832;2023-04-28T01:11:45;12.06;90.56
66506;HTU21D;53332;51.082;5.832;2023-04-28T01:14:11;12.04;90.42
66506;HTU21D;53332;51.082;5.832;2023-04-28T01:16:37;11.99;91.72
66506;HTU21D;53332;51.082;5.832;2023-04-28T01:19:06;11.98;92.67
66506;HTU21D;53332;51.082;5.832;2023-04-28T01:21:33;11.94;93.59
66506;HTU21D;53332;51.082;5.832;2023-04-28T01:23:59;11.91;94.51
66506;HTU21D;53332;51.082;5.832;2023-04-28T01:26:25;11.84;95.68
66506;HTU21D;53332;51.082;5.832;2023-04-28T01:28:51;11.81;96.52
66506;HTU21D;53332;51.082;5.832;2023-04-28T01:31:17;11.78;96.87
66506;HTU21D;53332;51.082;5.832;2023-04-28T01:33:43;11.74;96.99
66506;HTU21D;53332;51.082;5.832;2023-04-28T01:36:08;11.67;98.00
66506;HTU21D;53332;51.082;5.832;2023-04-28T01:38:34;11.70;98.48
66506;HTU21D;53332;51.082;5.832;2023-04-28T01:40:59;11.74;97.82
66506;HTU21D;53332;51.082;5.832;2023-04-28T01:43:30;11.70;97.84
66506;HTU21D;53332;51.082;5.832;2023-04-28T01:45:55;11.66;98.21
66506;HTU21D;53332;51.082;5.832;2023-04-28T01:48:21;11.63;98.34
66506;HTU21D;53332;51.082;5.832;2023-04-28T01:50:46;11.62;98.51
66506;HTU21D;53332;51.082;5.832;2023-04-28T01:53:12;11.63;98.99
66506;HTU21D;53332;51.082;5.832;2023-04-28T01:55:39;11.66;98.88
66506;HTU21D;53332;51.082;5.832;2023-04-28T01:58:04;11.70;98.77
66506;HTU21D;53332;51.082;5.832;2023-04-28T02:00:30;11.73;98.81
66506;HTU21D;53332;51.082;5.832;2023-04-28T02:02:55;11.75;99.01
66506;HTU21D;53332;51.082;5.832;2023-04-28T02:05:21;11.79;98.93
66506;HTU21D;53332;51.082;5.832;2023-04-28T02:07:46;11.86;98.55
66506;HTU21D;53332;51.082;5.832;2023-04-28T02:10:12;11.88;98.35
66506;HTU21D;53332;51.082;5.832;2023-04-28T02:12:37;11.89;98.97
66506;HTU21D;53332;51.082;5.832;2023-04-28T02:15:03;11.94;99.87
66506;HTU21D;53332;51.082;5.832;2023-04-28T02:17:29;11.96;100.13
66506;HTU21D;53332;51.082;5.832;2023-04-28T02:19:56;11.94;100.64
66506;HTU21D;53332;51.082;5.832;2023-04-28T02:22:22;11.96;100.54
66506;HTU21D;53332;51.082;5.832;2023-04-28T02:24:47;11.91;100.74
66506;HTU21D;53332;51.082;5.832;2023-04-28T02:27:13;11.84;100.66
66506;HTU21D;53332;51.082;5.832;2023-04-28T02:29:39;11.72;101.25
66506;HTU21D;53332;51.082;5.832;2023-04-28T02:32:05;11.64;103.82
66506;HTU21D;53332;51.082;5.832;2023-04-28T02:34:30;11.63;106.09
66506;HTU21D;53332;51.082;5.832;2023-04-28T02:36:56;11.67;106.14
66506;HTU21D;53332;51.082;5.832;2023-04-28T02:39:21;11.71;105.88
66506;HTU21D;53332;51.082;5.832;2023-04-28T02:41:49;11.71;106.51
66506;HTU21D;53332;51.082;5.832;2023-04-28T02:44:15;11.72;107.14
66506;HTU21D;53332;51.082;5.832;2023-04-28T02:46:41;11.70;107.85
66506;HTU21D;53332;51.082;5.832;2023-04-28T02:49:06;11.71;108.07
66506;HTU21D;53332;51.082;5.832;2023-04-28T02:51:32;11.70;108.69
66506;HTU21D;53332;51.082;5.832;2023-04-28T02:53:57;11.72;109.19
66506;HTU21D;53332;51.082;5.832;2023-04-28T02:56:23;11.72;109.52
66506;HTU21D;53332;51.082;5.832;2023-04-28T02:58:48;11.78;108.57
66506;HTU21D;53332;51.082;5.832;2023-04-28T03:01:14;11.83;107.88
66506;HTU21D;53332;51.082;5.832;2023-04-28T03:03:40;11.89;107.55
66506;HTU21D;53332;51.082;5.832;2023-04-28T03:06:06;11.94;107.10
66506;HTU21D;53332;51.082;5.832;2023-04-28T03:08:31;11.97;107.37
66506;HTU21D;53332;51.082;5.832;2023-04-28T03:10:57;11.97;107.23
66506;HTU21D;53332;51.082;5.832;2023-04-28T03:13:22;11.87;107.61
66506;HTU21D;53332;51.082;5.832;2023-04-28T03:15:48;11.81;109.17
66506;HTU21D;53332;51.082;5.832;2023-04-28T03:18:14;11.71;110.24
66506;HTU21D;53332;51.082;5.832;2023-04-28T03:20:39;11.57;111.44
66506;HTU21D;53332;51.082;5.832;2023-04-28T03:23:05;11.43;114.12
66506;HTU21D;53332;51.082;5.832;2023-04-28T03:25:33;11.40;116.71
66506;HTU21D;53332;51.082;5.832;2023-04-28T03:27:58;11.44;117.72
66506;HTU21D;53332;51.082;5.832;2023-04-28T03:30:24;11.44;117.76
66506;HTU21D;53332;51.082;5.832;2023-04-28T03:32:49;11.45;118.37
66506;HTU21D;53332;51.082;5.832;2023-04-28T03:35:15;11.48;118.99
66506;HTU21D;53332;51.082;5.832;2023-04-28T03:37:40;11.53;118.99
66506;HTU21D;53332;51.082;5.832;2023-04-28T03:40:06;11.60;118.99
66506;HTU21D;53332;51.082;5.832;2023-04-28T03:42:32;11.63;118.99
66506;HTU21D;53332;51.082;5.832;2023-04-28T03:44:57;11.68;118.99
66506;HTU21D;53332;51.082;5.832;2023-04-28T03:47:23;11.73;118.99
66506;HTU21D;53332;51.082;5.832;2023-04-28T03:49:48;11.82;118.40
66506;HTU21D;53332;51.082;5.832;2023-04-28T03:52:14;11.90;117.73
66506;HTU21D;53332;51.082;5.832;2023-04-28T03:54:40;11.96;117.18
66506;HTU21D;53332;51.082;5.832;2023-04-28T03:57:05;12.03;117.41
66506;HTU21D;53332;51.082;5.832;2023-04-28T03:59:31;12.08;116.61
66506;HTU21D;53332;51.082;5.832;2023-04-28T04:01:56;12.12;116.20
66506;HTU21D;53332;51.082;5.832;2023-04-28T04:04:22;12.11;116.86
66506;HTU21D;53332;51.082;5.832;2023-04-28T04:06:48;12.11;117.48
66506;HTU21D;53332;51.082;5.832;2023-04-28T04:09:13;12.12;118.08
66506;HTU21D;53332;51.082;5.832;2023-04-28T04:11:39;12.15;118.18
66506;HTU21D;53332;51.082;5.832;2023-04-28T04:14:05;12.26;118.20
66506;HTU21D;53332;51.082;5.832;2023-04-28T04:16:30;12.28;117.91
66506;HTU21D;53332;51.082;5.832;2023-04-28T04:18:56;12.33;117.70
66506;HTU21D;53332;51.082;5.832;2023-04-28T04:21:21;12.34;117.12
66506;HTU21D;53332;51.082;5.832;2023-04-28T04:23:47;12.33;117.28
66506;HTU21D;53332;51.082;5.832;2023-04-28T04:26:12;12.35;117.64
66506;HTU21D;53332;51.082;5.832;2023-04-28T04:28:38;12.38;117.41
66506;HTU21D;53332;51.082;5.832;2023-04-28T04:31:03;12.38;118.37
66506;HTU21D;53332;51.082;5.832;2023-04-28T04:33:29;12.35;118.92
66506;HTU21D;53332;51.082;5.832;2023-04-28T04:35:54;12.35;118.99
66506;HTU21D;53332;51.082;5.832;2023-04-28T04:38:20;12.37;118.99
66506;HTU21D;53332;51.082;5.832;2023-04-28T04:40:46;12.38;118.99
66506;HTU21D;53332;51.082;5.832;2023-04-28T04:43:11;12.36;118.99
66506;HTU21D;53332;51.082;5.832;2023-04-28T04:45:37;12.30;118.99
66506;HTU21D;53332;51.082;5.832;2023-04-28T04:48:03;12.23;118.99
66506;HTU21D;53332;51.082;5.832;2023-04-28T04:50:29;12.11;118.99
66506;HTU21D;53332;51.082;5.832;2023-04-28T04:52:54;11.94;118.99
66506;HTU21D;53332;51.082;5.832;2023-04-28T04:55:21;11.86;118.99
66506;HTU21D;53332;51.082;5.832;2023-04-28T04:57:47;11.83;118.99
66506;HTU21D;53332;51.082;5.832;2023-04-28T05:00:13;11.84;118.99
66506;HTU21D;53332;51.082;5.832;2023-04-28T05:02:38;11.87;118.99
66506;HTU21D;53332;51.082;5.832;2023-04-28T05:05:04;11.90;118.99
66506;HTU21D;53332;51.082;5.832;2023-04-28T05:07:30;11.89;118.99
66506;HTU21D;53332;51.082;5.832;2023-04-28T05:09:56;11.90;118.99
66506;HTU21D;53332;51.082;5.832;2023-04-28T05:12:21;11.90;118.99
66506;HTU21D;53332;51.082;5.832;2023-04-28T05:14:47;11.94;118.99
66506;HTU21D;53332;51.082;5.832;2023-04-28T05:17:12;11.94;118.99
66506;HTU21D;53332;51.082;5.832;2023-04-28T05:19:38;11.92;118.99
66506;HTU21D;53332;51.082;5.832;2023-04-28T05:22:03;11.97;118.99
66506;HTU21D;53332;51.082;5.832;2023-04-28T05:24:29;11.97;118.99
66506;HTU21D;53332;51.082;5.832;2023-04-28T05:26:57;11.98;118.99
66506;HTU21D;53332;51.082;5.832;2023-04-28T05:29:23;11.97;118.99
66506;HTU21D;53332;51.082;5.832;2023-04-28T05:31:49;12.00;118.99
66506;HTU21D;53332;51.082;5.832;2023-04-28T05:34:14;12.02;118.99
66506;HTU21D;53332;51.082;5.832;2023-04-28T05:36:40;12.03;118.99
66506;HTU21D;53332;51.082;5.832;2023-04-28T05:39:06;12.07;118.99
66506;HTU21D;53332;51.082;5.832;2023-04-28T05:41:32;12.11;118.99
66506;HTU21D;53332;51.082;5.832;2023-04-28T05:43:58;12.15;118.99
66506;HTU21D;53332;51.082;5.832;2023-04-28T05:46:24;12.19;118.99
66506;HTU21D;53332;51.082;5.832;2023-04-28T05:48:49;12.25;118.99
66506;HTU21D;53332;51.082;5.832;2023-04-28T05:51:15;12.30;118.99
66506;HTU21D;53332;51.082;5.832;2023-04-28T05:53:40;12.37;118.99
66506;HTU21D;53332;51.082;5.832;2023-04-28T05:56:06;12.46;118.99
66506;HTU21D;53332;51.082;5.832;2023-04-28T05:58:32;12.51;118.99
66506;HTU21D;53332;51.082;5.832;2023-04-28T06:00:58;12.53;118.99
66506;HTU21D;53332;51.082;5.832;2023-04-28T06:03:23;12.52;118.99
66506;HTU21D;53332;51.082;5.832;2023-04-28T06:05:50;12.53;118.99
66506;HTU21D;53332;51.082;5.832;2023-04-28T06:08:16;12.52;118.99
66506;HTU21D;53332;51.082;5.832;2023-04-28T06:10:41;12.57;118.99
66506;HTU21D;53332;51.082;5.832;2023-04-28T06:13:07;12.58;118.99
66506;HTU21D;53332;51.082;5.832;2023-04-28T06:15:33;12.62;118.99
66506;HTU21D;53332;51.082;5.832;2023-04-28T06:17:59;12.63;118.99
66506;HTU21D;53332;51.082;5.832;2023-04-28T06:20:25;12.64;118.99
66506;HTU21D;53332;51.082;5.832;2023-04-28T06:22:50;12.65;118.99
66506;HTU21D;53332;51.082;5.832;2023-04-28T06:25:16;12.72;118.99
66506;HTU21D;53332;51.082;5.832;2023-04-28T06:27:42;12.78;118.99
66506;HTU21D;53332;51.082;5.832;2023-04-28T06:30:08;12.86;118.99
66506;HTU21D;53332;51.082;5.832;2023-04-28T06:32:34;12.91;118.99
66506;HTU21D;53332;51.082;5.832;2023-04-28T06:34:59;12.93;118.99
66506;HTU21D;53332;51.082;5.832;2023-04-28T06:37:25;12.97;118.99
66506;HTU21D;53332;51.082;5.832;2023-04-28T06:39:51;13.04;118.99
66506;HTU21D;53332;51.082;5.832;2023-04-28T06:42:16;13.08;118.99
66506;HTU21D;53332;51.082;5.832;2023-04-28T06:44:43;13.12;118.99
66506;HTU21D;53332;51.082;5.832;2023-04-28T06:47:10;13.16;118.99
66506;HTU21D;53332;51.082;5.832;2023-04-28T06:49:35;13.16;118.99
66506;HTU21D;53332;51.082;5.832;2023-04-28T06:52:01;13.21;118.99
66506;HTU21D;53332;51.082;5.832;2023-04-28T06:54:26;13.22;118.99
66506;HTU21D;53332;51.082;5.832;2023-04-28T06:56:52;13.22;118.99
66506;HTU21D;53332;51.082;5.832;2023-04-28T06:59:17;13.21;118.99
66506;HTU21D;53332;51.082;5.832;2023-04-28T07:01:42;13.22;118.99
66506;HTU21D;53332;51.082;5.832;2023-04-28T07:04:08;13.22;118.99
66506;HTU21D;53332;51.082;5.832;2023-04-28T07:06:33;13.27;118.99
66506;HTU21D;53332;51.082;5.832;2023-04-28T07:09:00;13.32;118.99
66506;HTU21D;53332;51.082;5.832;2023-04-28T07:11:25;13.37;118.99
66506;HTU21D;53332;51.082;5.832;2023-04-28T07:13:51;13.45;118.99
66506;HTU21D;53332;51.082;5.832;2023-04-28T07:16:17;13.52;118.99
66506;HTU21D;53332;51.082;5.832;2023-04-28T07:18:43;13.63;118.99
66506;HTU21D;53332;51.082;5.832;2023-04-28T07:21:08;13.70;118.99
66506;HTU21D;53332;51.082;5.832;2023-04-28T07:23:34;13.78;118.99
66506;HTU21D;53332;51.082;5.832;2023-04-28T07:26:03;13.84;118.99
66506;HTU21D;53332;51.082;5.832;2023-04-28T07:28:28;13.90;118.99
66506;HTU21D;53332;51.082;5.832;2023-04-28T07:30:54;13.97;118.99
66506;HTU21D;53332;51.082;5.832;2023-04-28T07:33:19;14.05;118.99
66506;HTU21D;53332;51.082;5.832;2023-04-28T07:35:45;14.11;118.99
66506;HTU21D;53332;51.082;5.832;2023-04-28T07:38:10;14.15;118.99
66506;HTU21D;53332;51.082;5.832;2023-04-28T07:40:36;14.23;118.99
66506;HTU21D;53332;51.082;5.832;2023-04-28T07:43:02;14.29;118.99
66506;HTU21D;53332;51.082;5.832;2023-04-28T07:45:28;14.36;118.99
66506;HTU21D;53332;51.082;5.832;2023-04-28T07:47:53;14.43;118.99
66506;HTU21D;53332;51.082;5.832;2023-04-28T07:50:19;14.50;118.99
66506;HTU21D;53332;51.082;5.832;2023-04-28T07:52:44;14.56;118.99
66506;HTU21D;53332;51.082;5.832;2023-04-28T07:55:10;14.63;118.99
66506;HTU21D;53332;51.082;5.832;2023-04-28T07:57:36;14.68;118.99
66506;HTU21D;53332;51.082;5.832;2023-04-28T08:00:01;14.71;118.99
66506;HTU21D;53332;51.082;5.832;2023-04-28T08:02:27;14.77;118.99
66506;HTU21D;53332;51.082;5.832;2023-04-28T08:04:53;14.82;118.99
66506;HTU21D;53332;51.082;5.832;2023-04-28T08:07:18;14.86;118.99
66506;HTU21D;53332;51.082;5.832;2023-04-28T08:09:44;14.87;118.99
66506;HTU21D;53332;51.082;5.832;2023-04-28T08:12:12;14.94;118.99
66506;HTU21D;53332;51.082;5.832;2023-04-28T08:14:41;15.04;118.99
66506;HTU21D;53332;51.082;5.832;2023-04-28T08:17:06;15.10;118.99
66506;HTU21D;53332;51.082;5.832;2023-04-28T08:19:32;15.10;118.99
66506;HTU21D;53332;51.082;5.832;2023-04-28T08:21:58;15.12;118.99
66506;HTU21D;53332;51.082;5.832;2023-04-28T08:24:24;15.13;118.99
66506;HTU21D;53332;51.082;5.832;2023-04-28T08:26:50;15.21;118.99
66506;HTU21D;53332;51.082;5.832;2023-04-28T08:29:16;15.27;118.99
66506;HTU21D;53332;51.082;5.832;2023-04-28T08:31:41;15.33;118.99
66506;HTU21D;53332;51.082;5.832;2023-04-28T08:34:07;15.36;118.99
66506;HTU21D;53332;51.082;5.832;2023-04-28T08:36:33;15.40;118.99
66506;HTU21D;53332;51.082;5.832;2023-04-28T08:38:59;15.40;118.99
66506;HTU21D;53332;51.082;5.832;2023-04-28T08:41:33;15.42;118.99
66506;HTU21D;53332;51.082;5.832;2023-04-28T08:44:07;15.45;118.99
66506;HTU21D;53332;51.082;5.832;2023-04-28T08:46:34;15.48;118.99
66506;HTU21D;53332;51.082;5.832;2023-04-28T08:49:04;15.49;118.99
66506;HTU21D;53332;51.082;5.832;2023-04-28T08:51:54;15.51;118.99
66506;HTU21D;53332;51.082;5.832;2023-04-28T08:54:22;15.53;118.99
66506;HTU21D;53332;51.082;5.832;2023-04-28T08:56:49;15.52;118.99
66506;HTU21D;53332;51.082;5.832;2023-04-28T08:59:15;15.48;118.99
66506;HTU21D;53332;51.082;5.832;2023-04-28T09:01:42;15.46;118.99
66506;HTU21D;53332;51.082;5.832;2023-04-28T09:04:08;15.45;118.99
66506;HTU21D;53332;51.082;5.832;2023-04-28T09:06:36;15.49;118.99
66506;HTU21D;53332;51.082;5.832;2023-04-28T09:09:22;15.51;118.99
66506;HTU21D;53332;51.082;5.832;2023-04-28T09:11:57;15.53;118.99
66506;HTU21D;53332;51.082;5.832;2023-04-28T09:14:33;15.60;118.99
66506;HTU21D;53332;51.082;5.832;2023-04-28T09:17:00;15.65;118.99
66506;HTU21D;53332;51.082;5.832;2023-04-28T09:19:36;15.63;118.99
66506;HTU21D;53332;51.082;5.832;2023-04-28T09:22:04;15.60;118.99
66506;HTU21D;53332;51.082;5.832;2023-04-28T09:26:57;15.62;118.99
66506;HTU21D;53332;51.082;5.832;2023-04-28T09:29:22;15.68;118.99
66506;HTU21D;53332;51.082;5.832;2023-04-28T09:31:48;15.72;118.99
66506;HTU21D;53332;51.082;5.832;2023-04-28T09:34:13;15.74;118.99
66506;HTU21D;53332;51.082;5.832;2023-04-28T09:36:39;15.78;118.99
66506;HTU21D;53332;51.082;5.832;2023-04-28T09:39:05;15.83;118.99
66506;HTU21D;53332;51.082;5.832;2023-04-28T09:41:41;15.93;118.99
66506;HTU21D;53332;51.082;5.832;2023-04-28T09:44:11;16.08;118.99
66506;HTU21D;53332;51.082;5.832;2023-04-28T09:46:36;16.30;118.99
66506;HTU21D;53332;51.082;5.832;2023-04-28T09:49:02;16.55;118.99
66506;HTU21D;53332;51.082;5.832;2023-04-28T09:51:27;16.72;118.99
66506;HTU21D;53332;51.082;5.832;2023-04-28T09:53:55;16.78;118.99
66506;HTU21D;53332;51.082;5.832;2023-04-28T09:56:26;16.74;118.99
66506;HTU21D;53332;51.082;5.832;2023-04-28T09:58:53;16.70;118.99
66506;HTU21D;53332;51.082;5.832;2023-04-28T10:01:19;16.64;118.99
66506;HTU21D;53332;51.082;5.832;2023-04-28T10:03:45;16.62;118.99
66506;HTU21D;53332;51.082;5.832;2023-04-28T10:06:10;16.60;118.99
66506;HTU21D;53332;51.082;5.832;2023-04-28T10:08:36;16.63;118.99
66506;HTU21D;53332;51.082;5.832;2023-04-28T10:11:02;16.67;118.99
66506;HTU21D;53332;51.082;5.832;2023-04-28T10:13:28;16.72;118.99
66506;HTU21D;53332;51.082;5.832;2023-04-28T10:15:54;16.80;118.99
66506;HTU21D;53332;51.082;5.832;2023-04-28T10:18:21;16.82;118.99
66506;HTU21D;53332;51.082;5.832;2023-04-28T10:20:52;16.89;118.99
66506;HTU21D;53332;51.082;5.832;2023-04-28T10:27:14;17.07;118.99
66506;HTU21D;53332;51.082;5.832;2023-04-28T10:29:15;17.14;118.99
66506;HTU21D;53332;51.082;5.832;2023-04-28T10:34:41;17.36;118.99
66506;HTU21D;53332;51.082;5.832;2023-04-28T10:37:07;17.50;118.99
66506;HTU21D;53332;51.082;5.832;2023-04-28T10:39:32;17.63;118.99
66506;HTU21D;53332;51.082;5.832;2023-04-28T10:41:58;17.70;118.99
66506;HTU21D;53332;51.082;5.832;2023-04-28T10:47:06;17.84;118.99
66506;HTU21D;53332;51.082;5.832;2023-04-28T10:55:32;17.84;118.99
66506;HTU21D;53332;51.082;5.832;2023-04-28T11:00:40;17.93;118.99
66506;HTU21D;53332;51.082;5.832;2023-04-28T11:03:06;17.98;118.99
66506;HTU21D;53332;51.082;5.832;2023-04-28T11:05:32;18.05;118.99
66506;HTU21D;53332;51.082;5.832;2023-04-28T11:13:35;18.03;118.99
66506;HTU21D;53332;51.082;5.832;2023-04-28T11:16:02;18.03;118.99
66506;HTU21D;53332;51.082;5.832;2023-04-28T11:18:28;18.05;118.99
66506;HTU21D;53332;51.082;5.832;2023-04-28T11:20:56;18.10;118.99
66506;HTU21D;53332;51.082;5.832;2023-04-28T11:23:27;18.18;118.83
66506;HTU21D;53332;51.082;5.832;2023-04-28T11:25:53;18.33;118.99
66506;HTU21D;53332;51.082;5.832;2023-04-28T11:28:19;18.54;118.48
66506;HTU21D;53332;51.082;5.832;2023-04-28T11:30:45;18.79;116.65
66506;HTU21D;53332;51.082;5.832;2023-04-28T11:33:11;18.99;114.64
66506;HTU21D;53332;51.082;5.832;2023-04-28T11:35:41;19.10;112.40
66506;HTU21D;53332;51.082;5.832;2023-04-28T11:38:06;19.22;112.08
66506;HTU21D;53332;51.082;5.832;2023-04-28T11:40:32;19.40;111.50
66506;HTU21D;53332;51.082;5.832;2023-04-28T11:42:58;19.59;110.14
66506;HTU21D;53332;51.082;5.832;2023-04-28T11:45:26;19.81;108.05
66506;HTU21D;53332;51.082;5.832;2023-04-28T11:47:52;19.91;105.46
66506;HTU21D;53332;51.082;5.832;2023-04-28T11:50:34;19.97;103.51
66506;HTU21D;53332;51.082;5.832;2023-04-28T11:53:00;19.94;101.04
66506;HTU21D;53332;51.082;5.832;2023-04-28T11:55:26;19.84;98.99
66506;HTU21D;53332;51.082;5.832;2023-04-28T11:58:18;19.72;97.00
66506;HTU21D;53332;51.082;5.832;2023-04-28T12:01:06;19.58;96.58
66506;HTU21D;53332;51.082;5.832;2023-04-28T12:03:31;19.51;95.83
66506;HTU21D;53332;51.082;5.832;2023-04-28T12:05:57;19.35;95.87
66506;HTU21D;53332;51.082;5.832;2023-04-28T12:08:27;19.31;96.25
66506;HTU21D;53332;51.082;5.832;2023-04-28T12:11:10;19.37;95.20
66506;HTU21D;53332;51.082;5.832;2023-04-28T12:13:37;19.36;94.86
66506;HTU21D;53332;51.082;5.832;2023-04-28T12:16:05;19.38;94.58
66506;HTU21D;53332;51.082;5.832;2023-04-28T12:18:31;19.43;94.98
66506;HTU21D;53332;51.082;5.832;2023-04-28T12:20:57;19.45;95.04
66506;HTU21D;53332;51.082;5.832;2023-04-28T12:23:35;19.48;94.42
66506;HTU21D;53332;51.082;5.832;2023-04-28T12:26:01;19.44;94.82
66506;HTU21D;53332;51.082;5.832;2023-04-28T12:28:37;19.41;94.46
66506;HTU21D;53332;51.082;5.832;2023-04-28T12:31:06;19.32;94.25
66506;HTU21D;53332;51.082;5.832;2023-04-28T12:33:34;19.31;94.36
66506;HTU21D;53332;51.082;5.832;2023-04-28T12:36:03;19.37;94.52
66506;HTU21D;53332;51.082;5.832;2023-04-28T12:38:30;19.45;94.01
66506;HTU21D;53332;51.082;5.832;2023-04-28T12:40:56;19.46;93.91
66506;HTU21D;53332;51.082;5.832;2023-04-28T12:43:22;19.61;93.90
66506;HTU21D;53332;51.082;5.832;2023-04-28T12:45:53;19.77;93.08
66506;HTU21D;53332;51.082;5.832;2023-04-28T12:48:20;19.90;91.43
66506;HTU21D;53332;51.082;5.832;2023-04-28T12:50:47;20.02;90.91
66506;HTU21D;53332;51.082;5.832;2023-04-28T12:53:15;20.18;90.76
66506;HTU21D;53332;51.082;5.832;2023-04-28T12:55:41;20.31;89.03
66506;HTU21D;53332;51.082;5.832;2023-04-28T12:58:07;20.29;87.96
66506;HTU21D;53332;51.082;5.832;2023-04-28T13:00:32;20.26;88.09
66506;HTU21D;53332;51.082;5.832;2023-04-28T13:02:58;20.18;87.70
66506;HTU21D;53332;51.082;5.832;2023-04-28T13:05:23;20.01;88.38
66506;HTU21D;53332;51.082;5.832;2023-04-28T13:07:49;19.85;88.35
66506;HTU21D;53332;51.082;5.832;2023-04-28T13:10:15;19.74;89.55
66506;HTU21D;53332;51.082;5.832;2023-04-28T13:12:42;19.73;89.95
66506;HTU21D;53332;51.082;5.832;2023-04-28T13:15:08;19.69;89.30
66506;HTU21D;53332;51.082;5.832;2023-04-28T13:17:33;19.61;89.85
66506;HTU21D;53332;51.082;5.832;2023-04-28T13:19:59;19.55;90.29
66506;HTU21D;53332;51.082;5.832;2023-04-28T13:22:27;19.55;90.20
66506;HTU21D;53332;51.082;5.832;2023-04-28T13:24:52;19.51;89.73
66506;HTU21D;53332;51.082;5.832;2023-04-28T13:27:18;19.56;90.19
66506;HTU21D;53332;51.082;5.832;2023-04-28T13:29:43;19.72;90.44
66506;HTU21D;53332;51.082;5.832;2023-04-28T13:32:09;19.83;89.83
66506;HTU21D;53332;51.082;5.832;2023-04-28T13:34:35;19.94;89.13
66506;HTU21D;53332;51.082;5.832;2023-04-28T13:37:02;20.00;88.10
66506;HTU21D;53332;51.082;5.832;2023-04-28T13:39:28;20.04;89.18
66506;HTU21D;53332;51.082;5.832;2023-04-28T13:41:53;20.03;87.68
66506;HTU21D;53332;51.082;5.832;2023-04-28T13:44:19;19.94;87.68
66506;HTU21D;53332;51.082;5.832;2023-04-28T13:46:45;19.85;88.06
66506;HTU21D;53332;51.082;5.832;2023-04-28T13:49:11;19.77;88.80
66506;HTU21D;53332;51.082;5.832;2023-04-28T13:51:37;19.70;88.92
66506;HTU21D;53332;51.082;5.832;2023-04-28T13:54:04;19.55;89.41
66506;HTU21D;53332;51.082;5.832;2023-04-28T13:56:33;19.46;89.76
66506;HTU21D;53332;51.082;5.832;2023-04-28T13:58:59;19.33;91.06
66506;HTU21D;53332;51.082;5.832;2023-04-28T14:01:25;19.21;92.08
66506;HTU21D;53332;51.082;5.832;2023-04-28T14:03:50;19.00;93.14
66506;HTU21D;53332;51.082;5.832;2023-04-28T14:06:16;18.83;94.87
66506;HTU21D;53332;51.082;5.832;2023-04-28T14:08:41;18.69;96.64
66506;HTU21D;53332;51.082;5.832;2023-04-28T14:11:07;18.56;97.29
66506;HTU21D;53332;51.082;5.832;2023-04-28T14:13:33;18.29;97.61
66506;HTU21D;53332;51.082;5.832;2023-04-28T14:15:59;18.22;98.54
66506;HTU21D;53332;51.082;5.832;2023-04-28T14:18:28;18.11;98.98
66506;HTU21D;53332;51.082;5.832;2023-04-28T14:20:54;18.11;100.01
66506;HTU21D;53332;51.082;5.832;2023-04-28T14:23:21;18.17;100.23
66506;HTU21D;53332;51.082;5.832;2023-04-28T14:25:46;18.07;99.51
66506;HTU21D;53332;51.082;5.832;2023-04-28T14:28:12;17.92;100.23
66506;HTU21D;53332;51.082;5.832;2023-04-28T14:30:38;17.78;100.85
66506;HTU21D;53332;51.082;5.832;2023-04-28T14:33:03;17.79;102.02
66506;HTU21D;53332;51.082;5.832;2023-04-28T14:35:29;17.95;101.75
66506;HTU21D;53332;51.082;5.832;2023-04-28T14:37:56;18.06;100.18
66506;HTU21D;53332;51.082;5.832;2023-04-28T14:40:22;17.93;98.66
66506;HTU21D;53332;51.082;5.832;2023-04-28T14:42:48;17.79;98.80
66506;HTU21D;53332;51.082;5.832;2023-04-28T14:45:13;17.76;98.21
66506;HTU21D;53332;51.082;5.832;2023-04-28T14:47:40;17.73;98.23
66506;HTU21D;53332;51.082;5.832;2023-04-28T14:50:06;17.72;97.64
66506;HTU21D;53332;51.082;5.832;2023-04-28T14:52:32;17.65;97.18
66506;HTU21D;53332;51.082;5.832;2023-04-28T14:54:59;17.52;97.16
66506;HTU21D;53332;51.082;5.832;2023-04-28T14:57:25;17.41;97.87
66506;HTU21D;53332;51.082;5.832;2023-04-28T14:59:51;17.33;98.12
66506;HTU21D;53332;51.082;5.832;2023-04-28T15:02:18;17.29;98.95
66506;HTU21D;53332;51.082;5.832;2023-04-28T15:04:46;17.31;98.99
66506;HTU21D;53332;51.082;5.832;2023-04-28T15:07:13;17.20;98.78
66506;HTU21D;53332;51.082;5.832;2023-04-28T15:09:38;17.16;99.49
66506;HTU21D;53332;51.082;5.832;2023-04-28T15:12:04;17.10;99.47
66506;HTU21D;53332;51.082;5.832;2023-04-28T15:14:30;17.05;99.74
66506;HTU21D;53332;51.082;5.832;2023-04-28T15:16:56;17.06;100.25
66506;HTU21D;53332;51.082;5.832;2023-04-28T15:19:22;17.04;100.24
66506;HTU21D;53332;51.082;5.832;2023-04-28T15:21:48;16.99;100.05
66506;HTU21D;53332;51.082;5.832;2023-04-28T15:24:16;16.93;100.80
66506;HTU21D;53332;51.082;5.832;2023-04-28T15:26:42;16.94;100.61
66506;HTU21D;53332;51.082;5.832;2023-04-28T15:29:09;16.93;100.72